createdAt,value
2022-09-27T00:00:22.489Z,14.50
2022-09-27T00:01:25.835Z,13.75
2022-09-27T00:02:29.440Z,14.50
2022-09-27T00:03:32.750Z,15.75
2022-09-27T00:04:35.841Z,13.75
2022-09-27T00:05:39.014Z,12.00
2022-09-27T00:06:42.508Z,11.25
2022-09-27T00:07:48.569Z,9.50
2022-09-27T00:08:52.450Z,8.50
2022-09-27T00:09:56.854Z,9.00
2022-09-27T00:11:00.623Z,7.50
2022-09-27T00:12:03.936Z,7.75
2022-09-27T00:13:07.333Z,8.00
2022-09-27T00:14:10.819Z,8.00
2022-09-27T00:15:14.402Z,5.75
2022-09-27T00:16:18.163Z,4.75
2022-09-27T00:17:21.180Z,6.00
2022-09-27T00:18:24.465Z,6.50
2022-09-27T00:19:27.503Z,5.50
2022-09-27T00:20:30.520Z,5.00
2022-09-27T00:21:34.009Z,5.50
2022-09-27T00:22:37.096Z,6.00
2022-09-27T00:23:40.380Z,6.75
2022-09-27T00:24:43.551Z,7.00
2022-09-27T00:25:46.627Z,6.50
2022-09-27T00:26:49.724Z,4.75
2022-09-27T00:27:52.943Z,6.25
2022-09-27T00:28:56.092Z,6.00
2022-09-27T00:29:59.594Z,6.00
2022-09-27T00:31:02.713Z,5.50
2022-09-27T00:32:06.141Z,4.50
2022-09-27T00:33:09.732Z,4.00
2022-09-27T00:34:13.328Z,3.75
2022-09-27T00:35:16.509Z,5.50
2022-09-27T00:36:19.693Z,6.25
2022-09-27T00:37:22.979Z,5.40
2022-09-27T00:38:26.566Z,5.20
2022-09-27T00:39:30.049Z,4.25
2022-09-27T00:40:33.600Z,4.50
2022-09-27T00:41:36.930Z,4.50
2022-09-27T00:42:39.999Z,4.50
2022-09-27T00:43:43.201Z,5.00
2022-09-27T00:44:46.469Z,4.50
2022-09-27T00:45:49.705Z,4.50
2022-09-27T00:46:53.040Z,4.50
2022-09-27T00:47:56.324Z,4.00
2022-09-27T00:48:59.601Z,4.00
2022-09-27T00:50:02.799Z,3.75
2022-09-27T00:51:06.274Z,5.00
2022-09-27T00:52:09.457Z,7.00
2022-09-27T00:53:17.173Z,6.00
2022-09-27T00:54:20.436Z,9.75
2022-09-27T00:55:23.442Z,10.00
2022-09-27T00:56:27.337Z,4.50
2022-09-27T00:57:30.691Z,3.25
2022-09-27T00:58:33.881Z,4.00
2022-09-27T00:59:36.950Z,7.00
2022-09-27T01:00:40.240Z,10.50
2022-09-27T01:01:43.676Z,11.75
2022-09-27T01:02:47.259Z,13.00
2022-09-27T01:03:50.703Z,11.00
2022-09-27T01:04:54.090Z,10.50
2022-09-27T01:05:58.611Z,12.75
2022-09-27T01:07:01.783Z,16.25
2022-09-27T01:08:05.065Z,14.25
2022-09-27T01:10:12.354Z,8.00
2022-09-27T01:11:17.386Z,9.00
2022-09-27T01:12:20.971Z,9.00
2022-09-27T01:13:24.767Z,7.50
2022-09-27T01:14:28.399Z,7.50
2022-09-27T01:15:32.267Z,8.25
2022-09-27T01:16:35.890Z,7.50
2022-09-27T01:17:50.350Z,6.50
2022-09-27T01:18:54.127Z,6.50
2022-09-27T01:19:57.818Z,7.00
2022-09-27T01:21:03.141Z,8.50
2022-09-27T01:22:06.027Z,7.75
2022-09-27T01:23:09.405Z,5.50
2022-09-27T01:24:12.966Z,4.50
2022-09-27T01:25:16.472Z,3.75
2022-09-27T01:26:20.265Z,3.50
2022-09-27T01:27:23.643Z,5.25
2022-09-27T01:28:32.659Z,4.50
2022-09-27T01:29:36.255Z,4.50
2022-09-27T01:30:46.671Z,5.00
2022-09-27T01:31:50.607Z,4.50
2022-09-27T01:33:05.747Z,6.50
2022-09-27T01:34:24.882Z,6.50
2022-09-27T01:35:30.769Z,5.25
2022-09-27T01:36:48.909Z,4.50
2022-09-27T01:39:13.578Z,3.50
2022-09-27T01:40:16.980Z,6.00
2022-09-27T01:41:20.382Z,6.00
2022-09-27T01:42:23.651Z,5.00
2022-09-27T01:43:27.247Z,4.50
2022-09-27T01:44:31.237Z,5.00
2022-09-27T01:45:34.536Z,4.75
2022-09-27T01:46:39.003Z,5.50
2022-09-27T01:47:43.486Z,5.00
2022-09-27T01:48:46.847Z,6.00
2022-09-27T01:49:50.540Z,5.00
2022-09-27T01:50:53.962Z,4.50
2022-09-27T01:52:04.450Z,5.75
2022-09-27T01:53:07.779Z,4.50
2022-09-27T01:54:18.692Z,4.75
2022-09-27T01:55:23.003Z,5.50
2022-09-27T01:56:30.207Z,4.50
2022-09-27T01:59:07.691Z,5.00
2022-09-27T02:01:40.283Z,5.00
2022-09-27T02:02:57.489Z,6.00
2022-09-27T02:04:07.439Z,6.25
2022-09-27T02:09:16.999Z,6.00
2022-09-27T02:10:28.708Z,6.00
2022-09-27T02:11:35.678Z,5.50
2022-09-27T02:12:53.615Z,5.00
2022-09-27T02:14:04.198Z,5.50
2022-09-27T02:15:14.080Z,6.00
2022-09-27T02:17:44.964Z,5.50
2022-09-27T02:18:48.704Z,4.50
2022-09-27T02:20:04.144Z,5.00
2022-09-27T02:21:11.142Z,7.00
2022-09-27T02:22:21.247Z,6.00
2022-09-27T02:23:27.786Z,6.00
2022-09-27T02:24:40.251Z,6.00
2022-09-27T02:25:44.450Z,5.50
2022-09-27T02:29:31.341Z,6.00
2022-09-27T02:32:00.026Z,5.00
2022-09-27T02:34:37.876Z,5.50
2022-09-27T02:35:46.491Z,5.25
2022-09-27T02:36:55.978Z,5.00
2022-09-27T02:39:21.573Z,5.50
2022-09-27T02:40:27.234Z,6.50
2022-09-27T02:41:37.708Z,6.00
2022-09-27T02:42:43.580Z,5.50
2022-09-27T02:43:47.051Z,7.00
2022-09-27T02:44:50.421Z,6.50
2022-09-27T02:47:22.038Z,6.25
2022-09-27T02:48:32.591Z,5.00
2022-09-27T02:52:17.109Z,6.50
2022-09-27T02:53:25.824Z,7.00
2022-09-27T02:57:24.066Z,6.25
2022-09-27T02:58:30.308Z,6.75
2022-09-27T03:02:17.621Z,5.50
2022-09-27T03:03:23.226Z,6.00
2022-09-27T03:08:30.796Z,6.00
2022-09-27T03:12:33.681Z,5.00
2022-09-27T03:17:51.787Z,6.25
2022-09-27T03:22:59.788Z,4.50
2022-09-27T03:28:19.843Z,4.00
2022-09-27T03:58:50.500Z,4.50
2022-09-27T04:03:51.000Z,4.00
2022-09-27T04:10:19.766Z,4.00
2022-09-27T04:15:26.041Z,4.00
2022-09-27T04:18:02.253Z,3.50
2022-09-27T04:19:17.911Z,3.00
2022-09-27T04:20:21.645Z,4.00
2022-09-27T04:21:34.227Z,4.75
2022-09-27T04:22:37.732Z,4.50
2022-09-27T04:23:50.726Z,4.00
2022-09-27T04:25:05.193Z,4.00
2022-09-27T04:26:08.910Z,3.50
2022-09-27T04:27:12.360Z,4.00
2022-09-27T04:28:18.951Z,5.00
2022-09-27T04:29:22.148Z,4.75
2022-09-27T04:30:26.741Z,4.00
2022-09-27T04:31:30.857Z,4.50
2022-09-27T04:32:34.631Z,5.50
2022-09-27T04:33:38.039Z,5.50
2022-09-27T04:34:45.538Z,4.50
2022-09-27T04:35:46.275Z,4.00
2022-09-27T04:36:50.038Z,3.25
2022-09-27T04:37:53.830Z,3.25
2022-09-27T04:38:57.918Z,4.50
2022-09-27T04:40:09.415Z,4.50
2022-09-27T04:41:13.194Z,4.00
2022-09-27T04:42:16.712Z,5.50
2022-09-27T04:43:20.290Z,4.75
2022-09-27T04:44:23.911Z,4.50
2022-09-27T04:45:27.665Z,5.00
2022-09-27T04:46:31.210Z,5.00
2022-09-27T04:47:34.480Z,4.25
2022-09-27T04:48:38.097Z,4.50
2022-09-27T04:49:41.415Z,4.00
2022-09-27T04:50:44.612Z,4.50
2022-09-27T04:51:48.140Z,4.50
2022-09-27T04:52:51.532Z,5.00
2022-09-27T04:53:54.662Z,4.00
2022-09-27T04:54:57.860Z,3.40
2022-09-27T04:56:01.328Z,3.75
2022-09-27T04:57:04.773Z,3.25
2022-09-27T04:58:08.100Z,3.75
2022-09-27T04:59:11.420Z,3.00
2022-09-27T05:00:14.685Z,2.75
2022-09-27T05:01:17.893Z,3.50
2022-09-27T05:02:23.657Z,2.50
2022-09-27T05:03:26.713Z,2.50
2022-09-27T05:04:30.303Z,3.00
2022-09-27T05:05:33.618Z,2.75
2022-09-27T05:06:36.865Z,3.25
2022-09-27T05:07:45.656Z,3.75
2022-09-27T05:08:51.122Z,3.75
2022-09-27T05:09:57.289Z,4.50
2022-09-27T05:11:01.596Z,3.00
2022-09-27T05:12:04.861Z,3.00
2022-09-27T05:13:11.139Z,3.80
2022-09-27T05:14:19.025Z,3.25
2022-09-27T05:15:22.562Z,3.00
2022-09-27T05:16:29.710Z,3.50
2022-09-27T05:17:31.450Z,3.50
2022-09-27T05:18:39.795Z,3.75
2022-09-27T05:19:44.845Z,2.75
2022-09-27T05:20:54.970Z,3.00
2022-09-27T05:21:58.684Z,2.75
2022-09-27T05:23:03.174Z,3.50
2022-09-27T05:24:07.725Z,4.25
2022-09-27T05:25:21.078Z,2.75
2022-09-27T05:26:35.442Z,3.00
2022-09-27T05:27:43.949Z,3.00
2022-09-27T05:30:10.183Z,3.75
2022-09-27T05:32:35.389Z,4.00
2022-09-27T05:33:45.145Z,2.75
2022-09-27T05:34:48.504Z,3.00
2022-09-27T05:36:03.848Z,3.50
2022-09-27T05:37:07.820Z,3.50
2022-09-27T05:38:12.710Z,3.50
2022-09-27T05:39:17.934Z,2.25
2022-09-27T05:41:42.473Z,4.25
2022-09-27T05:42:52.491Z,3.50
2022-09-27T05:43:55.860Z,4.00
2022-09-27T05:45:02.419Z,3.50
2022-09-27T05:46:05.795Z,4.00
2022-09-27T05:47:12.370Z,4.00
2022-09-27T05:48:15.642Z,5.00
2022-09-27T05:49:19.572Z,3.50
2022-09-27T05:50:26.061Z,3.50
2022-09-27T05:51:34.412Z,4.50
2022-09-27T05:52:42.908Z,4.00
2022-09-27T05:53:46.194Z,4.50
2022-09-27T05:54:49.960Z,5.50
2022-09-27T05:55:56.948Z,5.00
2022-09-27T05:56:59.933Z,4.50
2022-09-27T05:58:03.418Z,4.25
2022-09-27T05:59:06.949Z,4.00
2022-09-27T06:00:11.864Z,4.25
2022-09-27T06:01:15.762Z,4.50
2022-09-27T06:02:19.950Z,4.00
2022-09-27T06:03:23.620Z,4.00
2022-09-27T06:04:27.456Z,5.00
2022-09-27T06:05:30.415Z,4.75
2022-09-27T06:06:34.323Z,5.00
2022-09-27T06:07:40.113Z,5.00
2022-09-27T06:08:43.641Z,5.00
2022-09-27T06:09:47.816Z,4.50
2022-09-27T06:10:52.162Z,3.50
2022-09-27T06:11:55.478Z,3.00
2022-09-27T06:20:23.862Z,3.00
2022-09-27T06:21:28.072Z,6.50
2022-09-27T06:22:39.647Z,3.00
2022-09-27T06:23:47.323Z,4.50
2022-09-27T06:24:50.733Z,3.50
2022-09-27T06:25:54.323Z,5.00
2022-09-27T06:26:59.415Z,3.50
2022-09-27T06:28:02.959Z,3.50
2022-09-27T06:29:07.264Z,3.25
2022-09-27T06:30:11.532Z,3.50
2022-09-27T06:31:16.509Z,3.00
2022-09-27T06:32:21.684Z,3.50
2022-09-27T06:33:25.749Z,2.50
2022-09-27T06:34:33.309Z,4.00
2022-09-27T06:35:37.527Z,3.50
2022-09-27T06:36:41.408Z,3.50
2022-09-27T06:37:44.981Z,4.00
2022-09-27T06:38:48.973Z,3.00
2022-09-27T06:39:53.787Z,3.50
2022-09-27T06:40:58.436Z,2.75
2022-09-27T06:42:02.732Z,2.00
2022-09-27T06:43:06.927Z,4.00
2022-09-27T06:44:11.473Z,3.75
2022-09-27T06:45:16.088Z,3.00
2022-09-27T06:46:20.031Z,3.00
2022-09-27T06:47:25.162Z,3.00
2022-09-27T06:48:29.894Z,2.75
